sensor_id;sensor_type;location;lat;lon;timestamp;pressure;altitude;pressure_sealevel;temperature;humidity
21234;BME280;10774;42.178;26.578;2023-02-20T00:00:37;100034.00;;;11.59;95.90
21234;BME280;10774;42.178;26.578;2023-02-20T00:03:04;100066.63;;;10.99;99.83
21234;BME280;10774;42.178;26.578;2023-02-20T00:05:30;100061.63;;;10.93;100.00
21234;BME280;10774;42.178;26.578;2023-02-20T00:07:55;100052.03;;;11.03;100.00
21234;BME280;10774;42.178;26.578;2023-02-20T00:10:20;100042.59;;;11.10;100.00
21234;BME280;10774;42.178;26.578;2023-02-20T00:12:46;100066.19;;;11.34;100.00
21234;BME280;10774;42.178;26.578;2023-02-20T00:15:14;100051.38;;;11.41;100.00
21234;BME280;10774;42.178;26.578;2023-02-20T00:17:41;100059.78;;;11.49;100.00
21234;BME280;10774;42.178;26.578;2023-02-20T00:20:07;100069.09;;;11.70;99.43
21234;BME280;10774;42.178;26.578;2023-02-20T00:22:33;100077.44;;;11.53;99.62
21234;BME280;10774;42.178;26.578;2023-02-20T00:24:58;100049.56;;;11.54;99.17
21234;BME280;10774;42.178;26.578;2023-02-20T00:27:24;100053.78;;;11.58;98.77
21234;BME280;10774;42.178;26.578;2023-02-20T00:29:49;100044.56;;;11.62;98.51
21234;BME280;10774;42.178;26.578;2023-02-20T00:32:15;100059.88;;;11.74;98.08
21234;BME280;10774;42.178;26.578;2023-02-20T00:34:40;100063.84;;;11.96;97.36
21234;BME280;10774;42.178;26.578;2023-02-20T00:37:06;100065.59;;;11.97;97.27
21234;BME280;10774;42.178;26.578;2023-02-20T00:39:32;100068.47;;;11.94;96.81
21234;BME280;10774;42.178;26.578;2023-02-20T00:41:58;100044.28;;;11.40;98.63
21234;BME280;10774;42.178;26.578;2023-02-20T00:44:24;100047.09;;;11.51;99.34
21234;BME280;10774;42.178;26.578;2023-02-20T00:46:49;100055.03;;;11.79;98.16
21234;BME280;10774;42.178;26.578;2023-02-20T00:49:14;100054.34;;;11.90;97.00
21234;BME280;10774;42.178;26.578;2023-02-20T00:51:40;100055.69;;;11.97;96.21
21234;BME280;10774;42.178;26.578;2023-02-20T00:54:05;100063.53;;;12.00;95.93
21234;BME280;10774;42.178;26.578;2023-02-20T00:56:31;100065.78;;;11.94;96.49
21234;BME280;10774;42.178;26.578;2023-02-20T00:58:56;100054.03;;;11.95;96.04
21234;BME280;10774;42.178;26.578;2023-02-20T01:01:22;100058.50;;;12.09;95.50
21234;BME280;10774;42.178;26.578;2023-02-20T01:03:49;100043.72;;;12.01;95.13
21234;BME280;10774;42.178;26.578;2023-02-20T01:06:15;100036.00;;;11.97;94.77
21234;BME280;10774;42.178;26.578;2023-02-20T01:08:40;100047.63;;;12.10;94.82
21234;BME280;10774;42.178;26.578;2023-02-20T01:11:06;100030.91;;;11.92;94.32
21234;BME280;10774;42.178;26.578;2023-02-20T01:13:31;100055.81;;;12.09;94.49
21234;BME280;10774;42.178;26.578;2023-02-20T01:15:56;100058.03;;;12.02;95.07
21234;BME280;10774;42.178;26.578;2023-02-20T01:18:22;100042.56;;;12.06;94.64
21234;BME280;10774;42.178;26.578;2023-02-20T01:20:47;100041.44;;;11.95;94.58
21234;BME280;10774;42.178;26.578;2023-02-20T01:23:13;100054.59;;;12.00;94.79
21234;BME280;10774;42.178;26.578;2023-02-20T01:25:38;100055.25;;;12.03;94.54
21234;BME280;10774;42.178;26.578;2023-02-20T01:28:04;100056.31;;;12.01;94.27
21234;BME280;10774;42.178;26.578;2023-02-20T01:30:29;100034.34;;;11.82;94.56
21234;BME280;10774;42.178;26.578;2023-02-20T01:32:55;100052.88;;;11.99;94.00
21234;BME280;10774;42.178;26.578;2023-02-20T01:35:20;100041.25;;;11.98;93.45
21234;BME280;10774;42.178;26.578;2023-02-20T01:37:45;100039.03;;;11.78;94.08
21234;BME280;10774;42.178;26.578;2023-02-20T01:40:19;100058.88;;;11.90;94.00
21234;BME280;10774;42.178;26.578;2023-02-20T01:42:48;100054.59;;;12.00;93.04
21234;BME280;10774;42.178;26.578;2023-02-20T01:47:46;100061.69;;;12.01;92.34
21234;BME280;10774;42.178;26.578;2023-02-20T01:50:13;100065.34;;;12.00;92.47
21234;BME280;10774;42.178;26.578;2023-02-20T01:52:39;100055.22;;;11.91;92.35
21234;BME280;10774;42.178;26.578;2023-02-20T01:55:13;100053.50;;;11.90;90.21
21234;BME280;10774;42.178;26.578;2023-02-20T01:57:43;100040.16;;;11.61;90.05
21234;BME280;10774;42.178;26.578;2023-02-20T02:00:15;100052.94;;;11.58;89.77
21234;BME280;10774;42.178;26.578;2023-02-20T02:02:43;100053.44;;;11.50;91.50
21234;BME280;10774;42.178;26.578;2023-02-20T02:05:10;100042.75;;;11.36;90.49
21234;BME280;10774;42.178;26.578;2023-02-20T02:07:37;100062.56;;;11.47;90.24
21234;BME280;10774;42.178;26.578;2023-02-20T02:10:07;100056.94;;;11.38;88.86
21234;BME280;10774;42.178;26.578;2023-02-20T02:12:35;100061.44;;;11.37;88.77
21234;BME280;10774;42.178;26.578;2023-02-20T02:15:01;100071.34;;;11.22;89.30
21234;BME280;10774;42.178;26.578;2023-02-20T02:40:28;100054.91;;;11.68;83.59
21234;BME280;10774;42.178;26.578;2023-02-20T02:43:15;100063.53;;;11.73;84.74
21234;BME280;10774;42.178;26.578;2023-02-20T02:45:48;100075.81;;;11.77;85.25
21234;BME280;10774;42.178;26.578;2023-02-20T02:49:09;100072.56;;;11.72;85.91
21234;BME280;10774;42.178;26.578;2023-02-20T02:51:29;100064.44;;;11.60;86.51
21234;BME280;10774;42.178;26.578;2023-02-20T02:56:45;100089.19;;;11.65;86.66
21234;BME280;10774;42.178;26.578;2023-02-20T02:59:14;100088.25;;;11.66;86.65
21234;BME280;10774;42.178;26.578;2023-02-20T03:01:45;100082.81;;;11.53;87.23
21234;BME280;10774;42.178;26.578;2023-02-20T03:04:13;100095.53;;;11.64;87.54
21234;BME280;10774;42.178;26.578;2023-02-20T03:06:48;100108.13;;;11.63;87.15
21234;BME280;10774;42.178;26.578;2023-02-20T03:09:25;100108.72;;;11.54;87.29
21234;BME280;10774;42.178;26.578;2023-02-20T03:11:54;100088.22;;;11.39;87.78
21234;BME280;10774;42.178;26.578;2023-02-20T03:14:26;100098.03;;;11.40;87.90
21234;BME280;10774;42.178;26.578;2023-02-20T03:19:42;100099.59;;;11.15;88.82
21234;BME280;10774;42.178;26.578;2023-02-20T03:22:13;100098.44;;;11.05;89.34
21234;BME280;10774;42.178;26.578;2023-02-20T03:24:42;100096.91;;;11.01;89.34
21234;BME280;10774;42.178;26.578;2023-02-20T03:27:29;100108.84;;;10.97;89.75
21234;BME280;10774;42.178;26.578;2023-02-20T03:30:06;100086.78;;;10.92;89.31
21234;BME280;10774;42.178;26.578;2023-02-20T03:32:35;100083.31;;;10.90;90.11
21234;BME280;10774;42.178;26.578;2023-02-20T03:35:22;100098.28;;;10.94;89.90
21234;BME280;10774;42.178;26.578;2023-02-20T03:38:08;100103.47;;;10.97;89.39
21234;BME280;10774;42.178;26.578;2023-02-20T03:40:53;100116.22;;;10.93;88.76
21234;BME280;10774;42.178;26.578;2023-02-20T03:43:38;100108.03;;;10.81;88.87
21234;BME280;10774;42.178;26.578;2023-02-20T03:46:08;100102.97;;;10.76;87.98
21234;BME280;10774;42.178;26.578;2023-02-20T03:51:01;100114.19;;;10.68;87.75
21234;BME280;10774;42.178;26.578;2023-02-20T03:53:36;100104.31;;;10.69;85.42
21234;BME280;10774;42.178;26.578;2023-02-20T03:56:04;100095.97;;;10.73;85.69
21234;BME280;10774;42.178;26.578;2023-02-20T03:58:33;100105.56;;;10.78;86.52
21234;BME280;10774;42.178;26.578;2023-02-20T04:01:02;100102.84;;;10.63;87.84
21234;BME280;10774;42.178;26.578;2023-02-20T04:03:32;100127.44;;;10.71;88.10
21234;BME280;10774;42.178;26.578;2023-02-20T04:06:01;100125.78;;;10.55;88.86
21234;BME280;10774;42.178;26.578;2023-02-20T04:08:55;100156.16;;;10.69;88.21
21234;BME280;10774;42.178;26.578;2023-02-20T04:11:37;100160.25;;;10.46;89.51
21234;BME280;10774;42.178;26.578;2023-02-20T04:14:05;100161.50;;;10.41;89.69
21234;BME280;10774;42.178;26.578;2023-02-20T04:16:35;100184.63;;;10.58;90.15
21234;BME280;10774;42.178;26.578;2023-02-20T04:19:03;100173.50;;;10.64;88.21
21234;BME280;10774;42.178;26.578;2023-02-20T04:21:36;100178.94;;;10.48;88.34
21234;BME280;10774;42.178;26.578;2023-02-20T04:24:10;100191.81;;;10.27;88.13
21234;BME280;10774;42.178;26.578;2023-02-20T04:26:37;100185.44;;;9.98;90.62
21234;BME280;10774;42.178;26.578;2023-02-20T04:29:04;100172.31;;;9.78;91.68
21234;BME280;10774;42.178;26.578;2023-02-20T04:31:30;100197.13;;;9.97;91.31
21234;BME280;10774;42.178;26.578;2023-02-20T04:33:55;100199.63;;;10.00;91.02
21234;BME280;10774;42.178;26.578;2023-02-20T04:36:21;100201.78;;;9.93;90.45
21234;BME280;10774;42.178;26.578;2023-02-20T04:38:47;100190.53;;;10.18;87.12
21234;BME280;10774;42.178;26.578;2023-02-20T04:41:12;100192.94;;;10.23;88.13
21234;BME280;10774;42.178;26.578;2023-02-20T04:43:38;100193.81;;;10.24;87.47
21234;BME280;10774;42.178;26.578;2023-02-20T04:46:03;100170.69;;;10.21;84.70
21234;BME280;10774;42.178;26.578;2023-02-20T04:48:29;100181.81;;;10.45;82.13
21234;BME280;10774;42.178;26.578;2023-02-20T04:50:54;100188.97;;;10.60;80.57
21234;BME280;10774;42.178;26.578;2023-02-20T04:53:20;100181.19;;;10.56;80.00
21234;BME280;10774;42.178;26.578;2023-02-20T04:55:45;100200.25;;;10.51;81.24
21234;BME280;10774;42.178;26.578;2023-02-20T04:58:10;100184.56;;;10.13;83.58
21234;BME280;10774;42.178;26.578;2023-02-20T05:00:36;100194.50;;;10.27;82.50
21234;BME280;10774;42.178;26.578;2023-02-20T05:03:01;100190.28;;;10.07;82.81
21234;BME280;10774;42.178;26.578;2023-02-20T05:05:28;100227.97;;;10.36;82.35
21234;BME280;10774;42.178;26.578;2023-02-20T05:07:55;100234.31;;;10.35;82.11
21234;BME280;10774;42.178;26.578;2023-02-20T05:10:22;100231.25;;;10.41;81.39
21234;BME280;10774;42.178;26.578;2023-02-20T05:12:47;100220.34;;;10.44;80.83
21234;BME280;10774;42.178;26.578;2023-02-20T05:15:13;100215.31;;;10.38;80.54
21234;BME280;10774;42.178;26.578;2023-02-20T05:17:39;100242.59;;;10.46;80.24
21234;BME280;10774;42.178;26.578;2023-02-20T05:20:06;100255.66;;;10.52;75.13
21234;BME280;10774;42.178;26.578;2023-02-20T05:22:38;100240.78;;;10.15;76.24
21234;BME280;10774;42.178;26.578;2023-02-20T05:25:04;100225.06;;;10.09;73.17
21234;BME280;10774;42.178;26.578;2023-02-20T05:27:30;100231.38;;;10.08;73.54
21234;BME280;10774;42.178;26.578;2023-02-20T05:29:57;100251.63;;;9.98;73.42
21234;BME280;10774;42.178;26.578;2023-02-20T05:32:25;100240.97;;;9.96;72.53
21234;BME280;10774;42.178;26.578;2023-02-20T05:34:50;100251.09;;;9.91;71.12
21234;BME280;10774;42.178;26.578;2023-02-20T05:37:18;100238.38;;;9.79;70.41
21234;BME280;10774;42.178;26.578;2023-02-20T05:39:45;100259.81;;;9.94;68.80
21234;BME280;10774;42.178;26.578;2023-02-20T05:42:11;100269.84;;;10.07;67.24
21234;BME280;10774;42.178;26.578;2023-02-20T05:44:37;100275.91;;;10.10;68.15
21234;BME280;10774;42.178;26.578;2023-02-20T05:47:03;100288.00;;;10.17;70.63
21234;BME280;10774;42.178;26.578;2023-02-20T05:49:29;100270.56;;;10.10;71.84
21234;BME280;10774;42.178;26.578;2023-02-20T05:51:55;100276.38;;;10.18;70.47
21234;BME280;10774;42.178;26.578;2023-02-20T05:54:21;100297.16;;;10.31;70.33
21234;BME280;10774;42.178;26.578;2023-02-20T05:56:47;100293.59;;;10.30;69.75
21234;BME280;10774;42.178;26.578;2023-02-20T05:59:16;100300.31;;;10.21;69.71
21234;BME280;10774;42.178;26.578;2023-02-20T06:01:42;100303.19;;;10.18;70.87
21234;BME280;10774;42.178;26.578;2023-02-20T06:04:07;100293.31;;;9.87;71.75
21234;BME280;10774;42.178;26.578;2023-02-20T06:06:36;100316.34;;;10.07;72.36
21234;BME280;10774;42.178;26.578;2023-02-20T06:09:03;100305.00;;;10.02;71.67
21234;BME280;10774;42.178;26.578;2023-02-20T06:11:32;100308.56;;;9.69;72.63
21234;BME280;10774;42.178;26.578;2023-02-20T06:13:58;100297.91;;;9.52;73.41
21234;BME280;10774;42.178;26.578;2023-02-20T06:16:28;100322.81;;;9.87;73.18
21234;BME280;10774;42.178;26.578;2023-02-20T06:18:54;100323.69;;;10.04;72.67
21234;BME280;10774;42.178;26.578;2023-02-20T06:21:21;100329.44;;;10.45;71.09
21234;BME280;10774;42.178;26.578;2023-02-20T06:23:48;100350.94;;;10.59;69.96
21234;BME280;10774;42.178;26.578;2023-02-20T06:26:14;100361.97;;;10.70;70.08
21234;BME280;10774;42.178;26.578;2023-02-20T06:28:41;100356.50;;;10.72;66.55
21234;BME280;10774;42.178;26.578;2023-02-20T06:31:07;100370.88;;;11.01;64.66
21234;BME280;10774;42.178;26.578;2023-02-20T06:33:33;100348.16;;;10.92;61.04
21234;BME280;10774;42.178;26.578;2023-02-20T06:35:59;100375.19;;;11.19;60.77
21234;BME280;10774;42.178;26.578;2023-02-20T06:38:25;100364.28;;;11.07;60.48
21234;BME280;10774;42.178;26.578;2023-02-20T06:40:51;100377.13;;;11.32;59.36
21234;BME280;10774;42.178;26.578;2023-02-20T06:43:16;100355.84;;;11.43;57.76
21234;BME280;10774;42.178;26.578;2023-02-20T06:45:42;100340.69;;;11.56;56.84
21234;BME280;10774;42.178;26.578;2023-02-20T06:48:07;100350.22;;;11.76;56.45
21234;BME280;10774;42.178;26.578;2023-02-20T06:50:33;100337.06;;;11.86;55.11
21234;BME280;10774;42.178;26.578;2023-02-20T06:52:58;100349.94;;;12.09;53.96
21234;BME280;10774;42.178;26.578;2023-02-20T06:55:24;100340.72;;;12.13;52.61
21234;BME280;10774;42.178;26.578;2023-02-20T06:57:49;100330.34;;;12.07;52.49
21234;BME280;10774;42.178;26.578;2023-02-20T07:00:16;100340.13;;;12.22;51.59
21234;BME280;10774;42.178;26.578;2023-02-20T07:02:42;100368.91;;;12.49;51.36
21234;BME280;10774;42.178;26.578;2023-02-20T07:05:09;100354.16;;;12.54;49.44
21234;BME280;10774;42.178;26.578;2023-02-20T07:07:35;100379.22;;;12.69;48.15
21234;BME280;10774;42.178;26.578;2023-02-20T07:10:01;100361.16;;;12.71;48.17
21234;BME280;10774;42.178;26.578;2023-02-20T07:12:31;100356.34;;;12.76;48.29
21234;BME280;10774;42.178;26.578;2023-02-20T07:14:57;100366.69;;;12.82;47.31
21234;BME280;10774;42.178;26.578;2023-02-20T07:17:22;100381.47;;;12.90;46.96
21234;BME280;10774;42.178;26.578;2023-02-20T07:19:48;100374.16;;;12.92;46.31
21234;BME280;10774;42.178;26.578;2023-02-20T07:22:13;100392.81;;;12.95;45.71
21234;BME280;10774;42.178;26.578;2023-02-20T07:24:38;100365.25;;;13.04;45.62
21234;BME280;10774;42.178;26.578;2023-02-20T07:27:06;100373.47;;;13.15;45.39
21234;BME280;10774;42.178;26.578;2023-02-20T07:29:32;100385.69;;;12.94;45.41
21234;BME280;10774;42.178;26.578;2023-02-20T07:31:57;100369.72;;;12.91;45.21
21234;BME280;10774;42.178;26.578;2023-02-20T07:34:23;100384.75;;;13.07;45.22
21234;BME280;10774;42.178;26.578;2023-02-20T07:36:48;100353.50;;;13.05;45.22
21234;BME280;10774;42.178;26.578;2023-02-20T07:39:13;100371.59;;;13.30;45.62
21234;BME280;10774;42.178;26.578;2023-02-20T07:41:39;100369.00;;;13.28;45.80
21234;BME280;10774;42.178;26.578;2023-02-20T07:44:05;100397.22;;;13.23;44.73
21234;BME280;10774;42.178;26.578;2023-02-20T07:46:31;100380.78;;;13.53;45.04
21234;BME280;10774;42.178;26.578;2023-02-20T07:49:00;100375.50;;;13.64;44.46
21234;BME280;10774;42.178;26.578;2023-02-20T07:51:25;100373.69;;;13.52;44.89
21234;BME280;10774;42.178;26.578;2023-02-20T07:53:51;100393.56;;;13.76;44.08
21234;BME280;10774;42.178;26.578;2023-02-20T07:56:19;100388.66;;;13.43;44.31
21234;BME280;10774;42.178;26.578;2023-02-20T07:58:45;100389.94;;;13.38;44.47
21234;BME280;10774;42.178;26.578;2023-02-20T08:01:11;100404.41;;;13.37;44.34
21234;BME280;10774;42.178;26.578;2023-02-20T08:03:36;100395.75;;;13.31;43.88
21234;BME280;10774;42.178;26.578;2023-02-20T08:06:02;100417.03;;;13.09;43.79
21234;BME280;10774;42.178;26.578;2023-02-20T08:08:27;100425.16;;;12.95;43.74
21234;BME280;10774;42.178;26.578;2023-02-20T08:10:53;100406.84;;;13.00;43.75
21234;BME280;10774;42.178;26.578;2023-02-20T08:13:18;100393.09;;;13.17;43.16
21234;BME280;10774;42.178;26.578;2023-02-20T08:15:44;100381.72;;;13.39;43.20
21234;BME280;10774;42.178;26.578;2023-02-20T08:18:10;100375.44;;;13.13;43.40
21234;BME280;10774;42.178;26.578;2023-02-20T08:20:36;100391.59;;;13.13;43.77
21234;BME280;10774;42.178;26.578;2023-02-20T08:23:01;100398.28;;;13.20;43.60
21234;BME280;10774;42.178;26.578;2023-02-20T08:25:29;100392.41;;;13.28;43.70
21234;BME280;10774;42.178;26.578;2023-02-20T08:27:55;100400.03;;;13.21;43.69
21234;BME280;10774;42.178;26.578;2023-02-20T08:30:24;100356.09;;;13.06;44.10
21234;BME280;10774;42.178;26.578;2023-02-20T08:32:51;100401.09;;;12.92;44.38
21234;BME280;10774;42.178;26.578;2023-02-20T08:35:17;100391.97;;;13.07;44.36
21234;BME280;10774;42.178;26.578;2023-02-20T08:37:43;100386.75;;;13.18;44.16
21234;BME280;10774;42.178;26.578;2023-02-20T08:40:09;100376.38;;;13.12;44.45
21234;BME280;10774;42.178;26.578;2023-02-20T08:42:34;100384.34;;;13.41;43.93
21234;BME280;10774;42.178;26.578;2023-02-20T08:45:01;100370.31;;;13.48;43.69
21234;BME280;10774;42.178;26.578;2023-02-20T08:47:26;100384.31;;;13.28;44.12
21234;BME280;10774;42.178;26.578;2023-02-20T08:49:51;100373.13;;;13.47;44.17
21234;BME280;10774;42.178;26.578;2023-02-20T08:52:17;100388.38;;;13.73;43.95
21234;BME280;10774;42.178;26.578;2023-02-20T08:54:47;100386.06;;;13.42;43.57
21234;BME280;10774;42.178;26.578;2023-02-20T08:57:13;100384.69;;;13.74;43.50
21234;BME280;10774;42.178;26.578;2023-02-20T08:59:39;100407.38;;;13.72;42.53
21234;BME280;10774;42.178;26.578;2023-02-20T09:02:05;100417.28;;;13.84;42.84
21234;BME280;10774;42.178;26.578;2023-02-20T09:04:30;100408.44;;;13.69;42.91
21234;BME280;10774;42.178;26.578;2023-02-20T09:06:56;100441.34;;;13.74;42.50
21234;BME280;10774;42.178;26.578;2023-02-20T09:09:22;100435.09;;;13.61;42.79
21234;BME280;10774;42.178;26.578;2023-02-20T09:11:47;100422.81;;;13.82;42.76
21234;BME280;10774;42.178;26.578;2023-02-20T09:14:13;100431.88;;;13.81;42.60
21234;BME280;10774;42.178;26.578;2023-02-20T09:16:38;100438.22;;;13.80;42.46
21234;BME280;10774;42.178;26.578;2023-02-20T09:19:07;100456.00;;;13.70;42.67
21234;BME280;10774;42.178;26.578;2023-02-20T09:21:33;100469.88;;;14.04;42.63
21234;BME280;10774;42.178;26.578;2023-02-20T09:23:58;100431.53;;;13.73;42.69
21234;BME280;10774;42.178;26.578;2023-02-20T09:26:24;100435.28;;;13.71;42.91
21234;BME280;10774;42.178;26.578;2023-02-20T09:28:49;100446.75;;;13.74;43.11
21234;BME280;10774;42.178;26.578;2023-02-20T09:31:14;100447.84;;;14.10;42.85
21234;BME280;10774;42.178;26.578;2023-02-20T09:33:45;100433.06;;;14.03;42.47
21234;BME280;10774;42.178;26.578;2023-02-20T09:36:11;100448.69;;;14.23;42.02
21234;BME280;10774;42.178;26.578;2023-02-20T09:38:36;100466.50;;;14.38;42.10
21234;BME280;10774;42.178;26.578;2023-02-20T09:41:02;100460.50;;;14.84;41.43
21234;BME280;10774;42.178;26.578;2023-02-20T09:43:39;100457.59;;;14.87;40.98
21234;BME280;10774;42.178;26.578;2023-02-20T09:46:19;100465.97;;;14.59;41.48
21234;BME280;10774;42.178;26.578;2023-02-20T09:51:22;100455.53;;;15.39;40.68
21234;BME280;10774;42.178;26.578;2023-02-20T09:56:20;100459.09;;;15.15;40.00
21234;BME280;10774;42.178;26.578;2023-02-20T09:59:02;100476.44;;;15.37;40.25
21234;BME280;10774;42.178;26.578;2023-02-20T10:01:31;100472.28;;;15.20;39.84
21234;BME280;10774;42.178;26.578;2023-02-20T10:04:02;100471.31;;;15.21;39.84
21234;BME280;10774;42.178;26.578;2023-02-20T10:06:32;100458.19;;;14.67;39.22
21234;BME280;10774;42.178;26.578;2023-02-20T10:08:58;100465.13;;;14.46;40.00
21234;BME280;10774;42.178;26.578;2023-02-20T10:22:34;100468.94;;;15.16;38.59
21234;BME280;10774;42.178;26.578;2023-02-20T10:25:22;100478.44;;;14.85;38.44
21234;BME280;10774;42.178;26.578;2023-02-20T10:28:18;100465.31;;;14.43;39.46
21234;BME280;10774;42.178;26.578;2023-02-20T10:33:25;100426.38;;;14.83;39.26
21234;BME280;10774;42.178;26.578;2023-02-20T10:35:56;100395.34;;;14.76;39.36
21234;BME280;10774;42.178;26.578;2023-02-20T10:38:28;100394.69;;;14.49;39.10
21234;BME280;10774;42.178;26.578;2023-02-20T10:43:53;100421.91;;;14.46;38.52
21234;BME280;10774;42.178;26.578;2023-02-20T10:48:56;100449.84;;;14.70;39.02
21234;BME280;10774;42.178;26.578;2023-02-20T10:51:32;100479.63;;;15.18;38.70
21234;BME280;10774;42.178;26.578;2023-02-20T10:54:03;100479.22;;;15.11;38.59
21234;BME280;10774;42.178;26.578;2023-02-20T10:56:57;100479.56;;;14.45;38.20
21234;BME280;10774;42.178;26.578;2023-02-20T11:02:15;100478.91;;;14.79;38.21
21234;BME280;10774;42.178;26.578;2023-02-20T11:04:47;100453.06;;;15.12;38.19
21234;BME280;10774;42.178;26.578;2023-02-20T11:07:16;100447.91;;;15.09;37.87
21234;BME280;10774;42.178;26.578;2023-02-20T11:09:43;100471.72;;;15.04;38.99
21234;BME280;10774;42.178;26.578;2023-02-20T11:12:21;100431.72;;;14.96;39.54
21234;BME280;10774;42.178;26.578;2023-02-20T11:14:50;100461.22;;;14.37;39.56
21234;BME280;10774;42.178;26.578;2023-02-20T11:17:23;100446.97;;;14.35;40.99
21234;BME280;10774;42.178;26.578;2023-02-20T11:19:55;100429.03;;;14.47;41.13
21234;BME280;10774;42.178;26.578;2023-02-20T11:22:44;100456.47;;;14.53;41.56
21234;BME280;10774;42.178;26.578;2023-02-20T11:25:20;100464.72;;;14.52;41.67
21234;BME280;10774;42.178;26.578;2023-02-20T11:27:50;100453.44;;;14.58;41.58
21234;BME280;10774;42.178;26.578;2023-02-20T11:30:29;100481.69;;;14.90;40.61
21234;BME280;10774;42.178;26.578;2023-02-20T11:33:17;100468.03;;;14.68;40.13
21234;BME280;10774;42.178;26.578;2023-02-20T11:35:45;100469.34;;;14.99;39.96
21234;BME280;10774;42.178;26.578;2023-02-20T11:38:33;100477.44;;;15.23;39.20
21234;BME280;10774;42.178;26.578;2023-02-20T11:41:02;100483.13;;;15.07;39.70
21234;BME280;10774;42.178;26.578;2023-02-20T11:43:39;100474.97;;;14.96;40.69
21234;BME280;10774;42.178;26.578;2023-02-20T11:48:34;100483.84;;;15.46;40.77
21234;BME280;10774;42.178;26.578;2023-02-20T11:50:59;100471.13;;;14.87;40.34
21234;BME280;10774;42.178;26.578;2023-02-20T11:53:32;100490.97;;;14.99;39.81
21234;BME280;10774;42.178;26.578;2023-02-20T11:56:14;100478.00;;;14.91;37.41
21234;BME280;10774;42.178;26.578;2023-02-20T11:58:41;100463.13;;;15.34;39.28
21234;BME280;10774;42.178;26.578;2023-02-20T12:01:33;100467.31;;;15.62;38.44
21234;BME280;10774;42.178;26.578;2023-02-20T12:03:59;100471.47;;;15.31;40.08
21234;BME280;10774;42.178;26.578;2023-02-20T12:09:03;100458.28;;;15.50;39.34
21234;BME280;10774;42.178;26.578;2023-02-20T12:11:30;100453.38;;;14.83;39.98
21234;BME280;10774;42.178;26.578;2023-02-20T12:13:57;100469.28;;;14.88;41.11
21234;BME280;10774;42.178;26.578;2023-02-20T12:16:41;100467.56;;;15.35;39.93
21234;BME280;10774;42.178;26.578;2023-02-20T12:30:02;100465.16;;;15.19;40.82
21234;BME280;10774;42.178;26.578;2023-02-20T12:46:36;100506.41;;;15.34;39.83
21234;BME280;10774;42.178;26.578;2023-02-20T12:57:13;100488.09;;;15.61;38.44
21234;BME280;10774;42.178;26.578;2023-02-20T13:00:40;100501.31;;;15.66;39.13
21234;BME280;10774;42.178;26.578;2023-02-20T13:02:36;100506.31;;;15.94;38.29
21234;BME280;10774;42.178;26.578;2023-02-20T13:05:06;100494.19;;;15.28;39.31
21234;BME280;10774;42.178;26.578;2023-02-20T13:07:55;100497.84;;;15.64;38.23
21234;BME280;10774;42.178;26.578;2023-02-20T13:10:44;100508.09;;;14.74;39.41
21234;BME280;10774;42.178;26.578;2023-02-20T13:13:11;100508.56;;;15.05;38.80
21234;BME280;10774;42.178;26.578;2023-02-20T13:15:57;100499.63;;;14.91;39.12
21234;BME280;10774;42.178;26.578;2023-02-20T13:21:15;100496.22;;;14.38;39.17
21234;BME280;10774;42.178;26.578;2023-02-20T13:23:41;100502.47;;;14.39;39.57
21234;BME280;10774;42.178;26.578;2023-02-20T13:28:51;100491.94;;;15.22;38.94
21234;BME280;10774;42.178;26.578;2023-02-20T13:31:21;100520.13;;;15.67;38.46
21234;BME280;10774;42.178;26.578;2023-02-20T13:36:44;100507.38;;;15.57;37.86
21234;BME280;10774;42.178;26.578;2023-02-20T13:54:54;100505.22;;;15.01;38.19
21234;BME280;10774;42.178;26.578;2023-02-20T13:57:20;100530.13;;;14.81;38.33
21234;BME280;10774;42.178;26.578;2023-02-20T13:59:51;100512.44;;;14.64;38.43
21234;BME280;10774;42.178;26.578;2023-02-20T14:02:21;100517.09;;;15.11;38.35
21234;BME280;10774;42.178;26.578;2023-02-20T14:04:58;100508.19;;;15.22;37.84
21234;BME280;10774;42.178;26.578;2023-02-20T14:07:28;100498.28;;;15.10;37.23
21234;BME280;10774;42.178;26.578;2023-02-20T14:10:43;100502.44;;;15.03;37.26
21234;BME280;10774;42.178;26.578;2023-02-20T14:15:57;100504.19;;;15.87;35.88
21234;BME280;10774;42.178;26.578;2023-02-20T14:18:28;100513.47;;;15.95;35.74
21234;BME280;10774;42.178;26.578;2023-02-20T14:21:06;100514.75;;;15.55;36.29
21234;BME280;10774;42.178;26.578;2023-02-20T14:23:33;100509.78;;;15.49;36.74
21234;BME280;10774;42.178;26.578;2023-02-20T14:26:23;100497.03;;;15.03;37.16
21234;BME280;10774;42.178;26.578;2023-02-20T14:28:51;100509.28;;;14.83;37.34
21234;BME280;10774;42.178;26.578;2023-02-20T14:33:46;100527.13;;;15.94;36.09
21234;BME280;10774;42.178;26.578;2023-02-20T14:39:15;100522.81;;;15.43;35.81
21234;BME280;10774;42.178;26.578;2023-02-20T14:42:20;100522.38;;;16.09;36.02
21234;BME280;10774;42.178;26.578;2023-02-20T14:44:48;100518.16;;;16.05;35.65
21234;BME280;10774;42.178;26.578;2023-02-20T14:47:15;100525.50;;;16.38;35.16
21234;BME280;10774;42.178;26.578;2023-02-20T14:49:42;100524.13;;;16.32;35.65
21234;BME280;10774;42.178;26.578;2023-02-20T14:52:13;100528.72;;;17.21;34.24
21234;BME280;10774;42.178;26.578;2023-02-20T14:54:41;100522.44;;;16.42;34.57
21234;BME280;10774;42.178;26.578;2023-02-20T14:57:12;100531.56;;;15.71;36.24
21234;BME280;10774;42.178;26.578;2023-02-20T14:59:39;100542.00;;;15.64;36.03
21234;BME280;10774;42.178;26.578;2023-02-20T15:04:30;100518.59;;;15.39;36.54